sensor_id;sensor_type;location;lat;lon;timestamp;P1;durP1;ratioP1;P2;durP2;ratioP2
14837;SDS011;7510;59.296;18.106;2022-11-20T00:01:13;3.17;;;2.10;;
14837;SDS011;7510;59.296;18.106;2022-11-20T00:03:53;1.87;;;1.60;;
14837;SDS011;7510;59.296;18.106;2022-11-20T00:06:20;2.33;;;1.23;;
14837;SDS011;7510;59.296;18.106;2022-11-20T00:08:46;2.10;;;1.47;;
14837;SDS011;7510;59.296;18.106;2022-11-20T00:11:16;1.37;;;1.27;;
14837;SDS011;7510;59.296;18.106;2022-11-20T00:13:44;5.43;;;3.27;;
14837;SDS011;7510;59.296;18.106;2022-11-20T00:16:11;6.27;;;1.90;;
14837;SDS011;7510;59.296;18.106;2022-11-20T00:18:38;2.93;;;2.17;;
14837;SDS011;7510;59.296;18.106;2022-11-20T00:21:05;3.17;;;2.03;;
14837;SDS011;7510;59.296;18.106;2022-11-20T00:23:32;5.67;;;3.10;;
14837;SDS011;7510;59.296;18.106;2022-11-20T00:26:00;5.43;;;2.73;;
14837;SDS011;7510;59.296;18.106;2022-11-20T00:28:30;5.90;;;3.70;;
14837;SDS011;7510;59.296;18.106;2022-11-20T00:31:02;4.70;;;3.13;;
14837;SDS011;7510;59.296;18.106;2022-11-20T00:33:30;6.90;;;3.30;;
14837;SDS011;7510;59.296;18.106;2022-11-20T00:35:59;6.20;;;4.10;;
14837;SDS011;7510;59.296;18.106;2022-11-20T00:38:28;5.57;;;3.03;;
14837;SDS011;7510;59.296;18.106;2022-11-20T00:40:58;5.57;;;3.47;;
14837;SDS011;7510;59.296;18.106;2022-11-20T00:43:25;5.50;;;3.37;;
14837;SDS011;7510;59.296;18.106;2022-11-20T00:45:55;4.93;;;2.50;;
14837;SDS011;7510;59.296;18.106;2022-11-20T00:48:25;7.20;;;3.50;;
14837;SDS011;7510;59.296;18.106;2022-11-20T00:50:51;8.40;;;3.83;;
14837;SDS011;7510;59.296;18.106;2022-11-20T00:53:16;6.40;;;3.53;;
14837;SDS011;7510;59.296;18.106;2022-11-20T00:55:41;6.03;;;3.67;;
14837;SDS011;7510;59.296;18.106;2022-11-20T00:58:07;9.73;;;4.60;;
14837;SDS011;7510;59.296;18.106;2022-11-20T01:00:32;6.93;;;4.07;;
14837;SDS011;7510;59.296;18.106;2022-11-20T01:02:58;9.90;;;4.80;;
14837;SDS011;7510;59.296;18.106;2022-11-20T01:05:23;5.50;;;4.53;;
14837;SDS011;7510;59.296;18.106;2022-11-20T01:07:49;7.00;;;3.50;;
14837;SDS011;7510;59.296;18.106;2022-11-20T01:10:14;5.37;;;3.63;;
14837;SDS011;7510;59.296;18.106;2022-11-20T01:12:40;7.37;;;3.73;;
14837;SDS011;7510;59.296;18.106;2022-11-20T01:15:05;7.37;;;4.20;;
14837;SDS011;7510;59.296;18.106;2022-11-20T01:17:31;5.00;;;3.20;;
14837;SDS011;7510;59.296;18.106;2022-11-20T01:19:57;5.57;;;3.23;;
14837;SDS011;7510;59.296;18.106;2022-11-20T01:22:22;5.10;;;3.47;;
14837;SDS011;7510;59.296;18.106;2022-11-20T01:24:48;8.57;;;4.47;;
14837;SDS011;7510;59.296;18.106;2022-11-20T01:27:13;6.30;;;3.93;;
14837;SDS011;7510;59.296;18.106;2022-11-20T01:29:39;10.23;;;7.00;;
14837;SDS011;7510;59.296;18.106;2022-11-20T01:32:04;7.00;;;4.60;;
14837;SDS011;7510;59.296;18.106;2022-11-20T01:34:29;8.47;;;4.30;;
14837;SDS011;7510;59.296;18.106;2022-11-20T01:36:55;8.97;;;5.87;;
14837;SDS011;7510;59.296;18.106;2022-11-20T01:39:21;9.67;;;4.57;;
14837;SDS011;7510;59.296;18.106;2022-11-20T01:41:48;6.33;;;4.10;;
14837;SDS011;7510;59.296;18.106;2022-11-20T01:44:50;7.40;;;4.87;;
14837;SDS011;7510;59.296;18.106;2022-11-20T01:47:23;10.07;;;4.93;;
14837;SDS011;7510;59.296;18.106;2022-11-20T01:50:01;5.97;;;2.63;;
14837;SDS011;7510;59.296;18.106;2022-11-20T01:52:40;5.87;;;4.00;;
14837;SDS011;7510;59.296;18.106;2022-11-20T01:55:14;8.97;;;4.87;;
14837;SDS011;7510;59.296;18.106;2022-11-20T01:57:44;5.80;;;3.70;;
14837;SDS011;7510;59.296;18.106;2022-11-20T02:00:13;6.87;;;4.87;;
14837;SDS011;7510;59.296;18.106;2022-11-20T02:02:40;8.57;;;4.80;;
14837;SDS011;7510;59.296;18.106;2022-11-20T02:05:23;5.97;;;3.73;;
14837;SDS011;7510;59.296;18.106;2022-11-20T02:07:56;5.80;;;4.10;;
14837;SDS011;7510;59.296;18.106;2022-11-20T02:10:24;7.80;;;4.53;;
14837;SDS011;7510;59.296;18.106;2022-11-20T02:12:50;6.90;;;4.27;;
14837;SDS011;7510;59.296;18.106;2022-11-20T02:15:35;6.80;;;4.03;;
14837;SDS011;7510;59.296;18.106;2022-11-20T02:18:00;9.73;;;4.43;;
14837;SDS011;7510;59.296;18.106;2022-11-20T02:20:26;7.83;;;4.67;;
14837;SDS011;7510;59.296;18.106;2022-11-20T02:23:12;7.17;;;4.80;;
14837;SDS011;7510;59.296;18.106;2022-11-20T02:25:46;5.47;;;4.10;;
14837;SDS011;7510;59.296;18.106;2022-11-20T02:28:12;8.43;;;4.03;;
14837;SDS011;7510;59.296;18.106;2022-11-20T02:30:38;10.33;;;4.50;;
14837;SDS011;7510;59.296;18.106;2022-11-20T02:33:03;8.47;;;5.60;;
14837;SDS011;7510;59.296;18.106;2022-11-20T02:37:55;4.23;;;3.33;;
14837;SDS011;7510;59.296;18.106;2022-11-20T02:40:23;7.13;;;4.10;;
14837;SDS011;7510;59.296;18.106;2022-11-20T02:42:51;4.33;;;3.33;;
14837;SDS011;7510;59.296;18.106;2022-11-20T02:45:17;10.07;;;4.77;;
14837;SDS011;7510;59.296;18.106;2022-11-20T02:47:42;6.13;;;3.30;;
14837;SDS011;7510;59.296;18.106;2022-11-20T02:50:08;6.63;;;2.80;;
14837;SDS011;7510;59.296;18.106;2022-11-20T02:52:33;7.53;;;4.53;;
14837;SDS011;7510;59.296;18.106;2022-11-20T02:54:59;4.87;;;2.67;;
14837;SDS011;7510;59.296;18.106;2022-11-20T02:57:25;4.30;;;2.90;;
14837;SDS011;7510;59.296;18.106;2022-11-20T02:59:51;6.13;;;3.30;;
14837;SDS011;7510;59.296;18.106;2022-11-20T03:02:16;6.30;;;2.50;;
14837;SDS011;7510;59.296;18.106;2022-11-20T03:04:42;6.93;;;2.00;;
14837;SDS011;7510;59.296;18.106;2022-11-20T03:07:07;4.27;;;2.70;;
14837;SDS011;7510;59.296;18.106;2022-11-20T03:09:34;4.90;;;2.53;;
14837;SDS011;7510;59.296;18.106;2022-11-20T03:12:00;6.90;;;3.77;;
14837;SDS011;7510;59.296;18.106;2022-11-20T03:14:25;3.20;;;1.40;;
14837;SDS011;7510;59.296;18.106;2022-11-20T03:16:51;1.73;;;1.43;;
14837;SDS011;7510;59.296;18.106;2022-11-20T03:19:16;4.10;;;1.67;;
14837;SDS011;7510;59.296;18.106;2022-11-20T03:21:42;5.00;;;2.03;;
14837;SDS011;7510;59.296;18.106;2022-11-20T03:24:07;1.37;;;1.27;;
14837;SDS011;7510;59.296;18.106;2022-11-20T03:26:32;2.63;;;1.07;;
14837;SDS011;7510;59.296;18.106;2022-11-20T03:28:59;0.70;;;0.70;;
14837;SDS011;7510;59.296;18.106;2022-11-20T03:31:30;2.27;;;1.87;;
14837;SDS011;7510;59.296;18.106;2022-11-20T03:34:05;1.40;;;1.30;;
14837;SDS011;7510;59.296;18.106;2022-11-20T03:36:32;3.13;;;1.20;;
14837;SDS011;7510;59.296;18.106;2022-11-20T03:38:58;0.30;;;0.27;;
14837;SDS011;7510;59.296;18.106;2022-11-20T03:41:28;3.37;;;1.57;;
14837;SDS011;7510;59.296;18.106;2022-11-20T03:43:56;2.30;;;1.80;;
14837;SDS011;7510;59.296;18.106;2022-11-20T03:46:23;2.03;;;1.30;;
14837;SDS011;7510;59.296;18.106;2022-11-20T03:48:49;1.40;;;1.30;;
14837;SDS011;7510;59.296;18.106;2022-11-20T03:51:25;1.60;;;1.30;;
14837;SDS011;7510;59.296;18.106;2022-11-20T03:53:53;3.83;;;1.03;;
14837;SDS011;7510;59.296;18.106;2022-11-20T03:56:22;1.20;;;0.77;;
14837;SDS011;7510;59.296;18.106;2022-11-20T03:58:49;0.00;;;0.00;;
14837;SDS011;7510;59.296;18.106;2022-11-20T04:01:16;2.33;;;1.10;;
14837;SDS011;7510;59.296;18.106;2022-11-20T04:03:44;1.70;;;1.13;;
14837;SDS011;7510;59.296;18.106;2022-11-20T04:06:33;2.07;;;1.80;;
14837;SDS011;7510;59.296;18.106;2022-11-20T04:08:59;3.30;;;1.37;;
14837;SDS011;7510;59.296;18.106;2022-11-20T04:11:25;3.37;;;2.40;;
14837;SDS011;7510;59.296;18.106;2022-11-20T04:13:53;2.77;;;1.60;;
14837;SDS011;7510;59.296;18.106;2022-11-20T04:16:21;1.10;;;1.00;;
14837;SDS011;7510;59.296;18.106;2022-11-20T04:18:51;7.30;;;1.40;;
14837;SDS011;7510;59.296;18.106;2022-11-20T04:21:17;2.93;;;1.80;;
14837;SDS011;7510;59.296;18.106;2022-11-20T04:23:43;2.97;;;1.17;;
14837;SDS011;7510;59.296;18.106;2022-11-20T04:26:09;1.67;;;1.10;;
14837;SDS011;7510;59.296;18.106;2022-11-20T04:28:37;1.77;;;0.83;;
14837;SDS011;7510;59.296;18.106;2022-11-20T04:33:35;2.13;;;1.40;;
14837;SDS011;7510;59.296;18.106;2022-11-20T04:36:02;5.27;;;1.33;;
14837;SDS011;7510;59.296;18.106;2022-11-20T04:38:29;1.17;;;1.07;;
14837;SDS011;7510;59.296;18.106;2022-11-20T04:40:56;2.47;;;2.37;;
14837;SDS011;7510;59.296;18.106;2022-11-20T04:43:23;1.60;;;0.93;;
14837;SDS011;7510;59.296;18.106;2022-11-20T04:45:52;1.70;;;1.27;;
14837;SDS011;7510;59.296;18.106;2022-11-20T04:48:18;1.40;;;0.77;;
14837;SDS011;7510;59.296;18.106;2022-11-20T04:50:44;3.40;;;0.83;;
14837;SDS011;7510;59.296;18.106;2022-11-20T04:53:09;1.10;;;1.00;;
14837;SDS011;7510;59.296;18.106;2022-11-20T04:55:34;1.27;;;1.07;;
14837;SDS011;7510;59.296;18.106;2022-11-20T04:58:00;2.27;;;0.73;;
14837;SDS011;7510;59.296;18.106;2022-11-20T05:00:25;1.57;;;1.13;;
14837;SDS011;7510;59.296;18.106;2022-11-20T05:02:51;2.07;;;0.87;;
14837;SDS011;7510;59.296;18.106;2022-11-20T05:05:16;4.50;;;1.50;;
14837;SDS011;7510;59.296;18.106;2022-11-20T05:07:41;1.63;;;1.13;;
14837;SDS011;7510;59.296;18.106;2022-11-20T05:10:07;0.53;;;0.50;;
14837;SDS011;7510;59.296;18.106;2022-11-20T05:12:33;2.53;;;1.33;;
14837;SDS011;7510;59.296;18.106;2022-11-20T05:14:58;4.43;;;0.83;;
14837;SDS011;7510;59.296;18.106;2022-11-20T05:17:23;1.63;;;1.10;;
14837;SDS011;7510;59.296;18.106;2022-11-20T05:19:49;0.77;;;0.77;;
14837;SDS011;7510;59.296;18.106;2022-11-20T05:22:14;1.80;;;1.03;;
14837;SDS011;7510;59.296;18.106;2022-11-20T05:24:40;2.37;;;1.67;;
14837;SDS011;7510;59.296;18.106;2022-11-20T05:27:05;1.13;;;0.70;;
14837;SDS011;7510;59.296;18.106;2022-11-20T05:29:31;1.40;;;0.67;;
14837;SDS011;7510;59.296;18.106;2022-11-20T05:31:56;1.13;;;0.90;;
14837;SDS011;7510;59.296;18.106;2022-11-20T05:34:21;1.40;;;1.03;;
14837;SDS011;7510;59.296;18.106;2022-11-20T05:36:47;1.50;;;0.90;;
14837;SDS011;7510;59.296;18.106;2022-11-20T05:39:12;1.23;;;0.60;;
14837;SDS011;7510;59.296;18.106;2022-11-20T05:41:38;2.20;;;1.43;;
14837;SDS011;7510;59.296;18.106;2022-11-20T05:44:03;1.63;;;0.77;;
14837;SDS011;7510;59.296;18.106;2022-11-20T05:46:29;0.43;;;0.43;;
14837;SDS011;7510;59.296;18.106;2022-11-20T05:48:54;1.40;;;0.70;;
14837;SDS011;7510;59.296;18.106;2022-11-20T05:51:21;2.33;;;0.93;;
14837;SDS011;7510;59.296;18.106;2022-11-20T05:53:47;3.03;;;0.60;;
14837;SDS011;7510;59.296;18.106;2022-11-20T05:56:13;1.77;;;0.67;;
14837;SDS011;7510;59.296;18.106;2022-11-20T05:58:43;0.60;;;0.60;;
14837;SDS011;7510;59.296;18.106;2022-11-20T06:01:19;0.90;;;0.63;;
14837;SDS011;7510;59.296;18.106;2022-11-20T06:03:46;1.17;;;0.90;;
14837;SDS011;7510;59.296;18.106;2022-11-20T06:06:13;0.70;;;0.60;;
14837;SDS011;7510;59.296;18.106;2022-11-20T06:08:40;2.70;;;1.13;;
14837;SDS011;7510;59.296;18.106;2022-11-20T06:11:06;0.57;;;0.50;;
14837;SDS011;7510;59.296;18.106;2022-11-20T06:13:33;0.20;;;0.20;;
14837;SDS011;7510;59.296;18.106;2022-11-20T06:16:00;1.03;;;0.93;;
14837;SDS011;7510;59.296;18.106;2022-11-20T06:18:26;0.67;;;0.67;;
14837;SDS011;7510;59.296;18.106;2022-11-20T06:21:00;3.60;;;0.97;;
14837;SDS011;7510;59.296;18.106;2022-11-20T06:23:33;1.97;;;0.93;;
14837;SDS011;7510;59.296;18.106;2022-11-20T06:26:06;0.73;;;0.40;;
14837;SDS011;7510;59.296;18.106;2022-11-20T06:28:33;1.33;;;0.70;;
14837;SDS011;7510;59.296;18.106;2022-11-20T06:30:59;0.77;;;0.73;;
14837;SDS011;7510;59.296;18.106;2022-11-20T06:33:24;0.70;;;0.70;;
14837;SDS011;7510;59.296;18.106;2022-11-20T06:35:50;2.17;;;0.60;;
14837;SDS011;7510;59.296;18.106;2022-11-20T06:38:16;0.50;;;0.50;;
14837;SDS011;7510;59.296;18.106;2022-11-20T06:40:42;0.93;;;0.87;;
14837;SDS011;7510;59.296;18.106;2022-11-20T06:43:08;0.20;;;0.20;;
14837;SDS011;7510;59.296;18.106;2022-11-20T06:45:34;1.73;;;0.83;;
14837;SDS011;7510;59.296;18.106;2022-11-20T06:48:00;2.20;;;0.60;;
14837;SDS011;7510;59.296;18.106;2022-11-20T06:50:26;0.83;;;0.67;;
14837;SDS011;7510;59.296;18.106;2022-11-20T06:52:51;1.10;;;0.80;;
14837;SDS011;7510;59.296;18.106;2022-11-20T06:55:17;0.87;;;0.33;;
14837;SDS011;7510;59.296;18.106;2022-11-20T06:57:42;1.60;;;1.23;;
14837;SDS011;7510;59.296;18.106;2022-11-20T07:00:08;0.20;;;0.20;;
14837;SDS011;7510;59.296;18.106;2022-11-20T07:02:33;1.50;;;0.60;;
14837;SDS011;7510;59.296;18.106;2022-11-20T07:04:59;1.13;;;1.00;;
14837;SDS011;7510;59.296;18.106;2022-11-20T07:07:24;2.20;;;1.00;;
14837;SDS011;7510;59.296;18.106;2022-11-20T07:09:50;2.30;;;0.80;;
14837;SDS011;7510;59.296;18.106;2022-11-20T07:12:15;0.50;;;0.43;;
14837;SDS011;7510;59.296;18.106;2022-11-20T07:14:41;0.50;;;0.50;;
14837;SDS011;7510;59.296;18.106;2022-11-20T07:17:06;0.40;;;0.40;;
14837;SDS011;7510;59.296;18.106;2022-11-20T07:19:31;0.30;;;0.30;;
14837;SDS011;7510;59.296;18.106;2022-11-20T07:21:57;0.97;;;0.80;;
14837;SDS011;7510;59.296;18.106;2022-11-20T07:24:22;2.53;;;0.47;;
14837;SDS011;7510;59.296;18.106;2022-11-20T07:26:48;1.60;;;0.73;;
14837;SDS011;7510;59.296;18.106;2022-11-20T07:29:16;2.00;;;0.93;;
14837;SDS011;7510;59.296;18.106;2022-11-20T07:31:42;2.13;;;1.10;;
14837;SDS011;7510;59.296;18.106;2022-11-20T07:34:08;0.60;;;0.50;;
14837;SDS011;7510;59.296;18.106;2022-11-20T07:36:34;4.93;;;0.50;;
14837;SDS011;7510;59.296;18.106;2022-11-20T07:38:59;0.50;;;0.50;;
14837;SDS011;7510;59.296;18.106;2022-11-20T07:41:25;0.90;;;0.70;;
14837;SDS011;7510;59.296;18.106;2022-11-20T07:43:51;1.50;;;1.33;;
14837;SDS011;7510;59.296;18.106;2022-11-20T07:46:16;1.07;;;0.60;;
14837;SDS011;7510;59.296;18.106;2022-11-20T07:48:42;2.43;;;0.57;;
14837;SDS011;7510;59.296;18.106;2022-11-20T07:51:07;3.17;;;0.53;;
14837;SDS011;7510;59.296;18.106;2022-11-20T07:53:32;0.73;;;0.50;;
14837;SDS011;7510;59.296;18.106;2022-11-20T07:56:02;0.50;;;0.50;;
14837;SDS011;7510;59.296;18.106;2022-11-20T07:58:30;1.90;;;0.67;;
14837;SDS011;7510;59.296;18.106;2022-11-20T08:00:58;1.83;;;1.47;;
14837;SDS011;7510;59.296;18.106;2022-11-20T08:03:28;0.77;;;0.77;;
14837;SDS011;7510;59.296;18.106;2022-11-20T08:05:53;1.93;;;1.03;;
14837;SDS011;7510;59.296;18.106;2022-11-20T08:08:18;3.47;;;1.30;;
14837;SDS011;7510;59.296;18.106;2022-11-20T08:10:44;2.17;;;1.17;;
14837;SDS011;7510;59.296;18.106;2022-11-20T08:13:09;3.20;;;1.17;;
14837;SDS011;7510;59.296;18.106;2022-11-20T08:15:53;1.70;;;1.30;;
14837;SDS011;7510;59.296;18.106;2022-11-20T08:18:19;1.27;;;0.90;;
14837;SDS011;7510;59.296;18.106;2022-11-20T08:20:44;4.53;;;2.03;;
14837;SDS011;7510;59.296;18.106;2022-11-20T08:23:10;3.17;;;1.50;;
14837;SDS011;7510;59.296;18.106;2022-11-20T08:25:36;3.20;;;1.50;;
14837;SDS011;7510;59.296;18.106;2022-11-20T08:28:06;3.60;;;1.50;;
14837;SDS011;7510;59.296;18.106;2022-11-20T08:30:33;4.57;;;1.80;;
14837;SDS011;7510;59.296;18.106;2022-11-20T08:33:00;4.77;;;1.53;;
14837;SDS011;7510;59.296;18.106;2022-11-20T08:35:35;3.73;;;2.40;;
14837;SDS011;7510;59.296;18.106;2022-11-20T08:38:03;3.80;;;1.83;;
14837;SDS011;7510;59.296;18.106;2022-11-20T08:40:29;5.40;;;1.90;;
14837;SDS011;7510;59.296;18.106;2022-11-20T08:42:55;3.93;;;1.97;;
14837;SDS011;7510;59.296;18.106;2022-11-20T08:45:20;3.87;;;2.10;;
14837;SDS011;7510;59.296;18.106;2022-11-20T08:47:46;2.17;;;1.80;;
14837;SDS011;7510;59.296;18.106;2022-11-20T08:50:12;4.37;;;1.97;;
14837;SDS011;7510;59.296;18.106;2022-11-20T08:52:39;4.17;;;2.00;;
14837;SDS011;7510;59.296;18.106;2022-11-20T08:55:05;2.30;;;2.10;;
14837;SDS011;7510;59.296;18.106;2022-11-20T08:57:34;4.70;;;1.90;;
14837;SDS011;7510;59.296;18.106;2022-11-20T09:00:00;6.30;;;1.70;;
14837;SDS011;7510;59.296;18.106;2022-11-20T09:02:27;3.70;;;2.00;;
14837;SDS011;7510;59.296;18.106;2022-11-20T09:04:53;5.87;;;1.77;;
14837;SDS011;7510;59.296;18.106;2022-11-20T09:07:19;2.33;;;1.70;;
14837;SDS011;7510;59.296;18.106;2022-11-20T09:09:45;2.77;;;2.03;;
14837;SDS011;7510;59.296;18.106;2022-11-20T09:12:10;2.90;;;1.90;;
14837;SDS011;7510;59.296;18.106;2022-11-20T09:14:36;2.63;;;2.33;;
14837;SDS011;7510;59.296;18.106;2022-11-20T09:17:01;2.97;;;2.20;;
14837;SDS011;7510;59.296;18.106;2022-11-20T09:19:27;3.37;;;2.90;;
14837;SDS011;7510;59.296;18.106;2022-11-20T09:21:52;2.60;;;1.97;;
14837;SDS011;7510;59.296;18.106;2022-11-20T09:24:18;3.83;;;2.00;;
14837;SDS011;7510;59.296;18.106;2022-11-20T09:26:45;5.53;;;2.23;;
14837;SDS011;7510;59.296;18.106;2022-11-20T09:29:11;3.83;;;2.20;;
14837;SDS011;7510;59.296;18.106;2022-11-20T09:31:36;3.83;;;2.10;;
14837;SDS011;7510;59.296;18.106;2022-11-20T09:34:02;2.73;;;1.87;;
14837;SDS011;7510;59.296;18.106;2022-11-20T09:36:27;6.33;;;2.20;;
14837;SDS011;7510;59.296;18.106;2022-11-20T09:38:53;3.43;;;1.53;;
14837;SDS011;7510;59.296;18.106;2022-11-20T09:46:53;4.13;;;1.80;;
14837;SDS011;7510;59.296;18.106;2022-11-20T09:54:37;4.73;;;2.20;;
14837;SDS011;7510;59.296;18.106;2022-11-20T09:57:09;3.37;;;2.50;;
14837;SDS011;7510;59.296;18.106;2022-11-20T09:59:40;3.07;;;2.33;;
14837;SDS011;7510;59.296;18.106;2022-11-20T10:02:16;5.47;;;2.40;;
14837;SDS011;7510;59.296;18.106;2022-11-20T10:04:59;5.70;;;2.73;;
14837;SDS011;7510;59.296;18.106;2022-11-20T10:07:47;2.63;;;2.07;;
14837;SDS011;7510;59.296;18.106;2022-11-20T10:29:21;5.07;;;2.47;;
14837;SDS011;7510;59.296;18.106;2022-11-20T10:32:03;3.83;;;2.47;;
14837;SDS011;7510;59.296;18.106;2022-11-20T10:37:16;4.77;;;2.07;;
14837;SDS011;7510;59.296;18.106;2022-11-20T10:39:51;5.00;;;2.00;;
14837;SDS011;7510;59.296;18.106;2022-11-20T10:42:27;5.23;;;2.00;;
14837;SDS011;7510;59.296;18.106;2022-11-20T10:45:09;3.67;;;1.17;;
14837;SDS011;7510;59.296;18.106;2022-11-20T10:47:44;3.07;;;1.80;;
14837;SDS011;7510;59.296;18.106;2022-11-20T10:50:11;2.57;;;1.63;;
14837;SDS011;7510;59.296;18.106;2022-11-20T10:55:30;5.40;;;2.23;;
14837;SDS011;7510;59.296;18.106;2022-11-20T10:58:14;4.50;;;1.83;;
14837;SDS011;7510;59.296;18.106;2022-11-20T11:00:51;4.50;;;1.43;;
14837;SDS011;7510;59.296;18.106;2022-11-20T11:03:20;4.03;;;2.40;;
14837;SDS011;7510;59.296;18.106;2022-11-20T11:08:29;2.97;;;1.80;;
14837;SDS011;7510;59.296;18.106;2022-11-20T11:11:02;2.43;;;1.90;;
14837;SDS011;7510;59.296;18.106;2022-11-20T11:13:35;4.10;;;2.27;;
14837;SDS011;7510;59.296;18.106;2022-11-20T11:16:01;3.33;;;2.30;;
14837;SDS011;7510;59.296;18.106;2022-11-20T11:18:32;5.13;;;2.30;;
14837;SDS011;7510;59.296;18.106;2022-11-20T11:21:00;4.77;;;2.00;;
14837;SDS011;7510;59.296;18.106;2022-11-20T11:26:17;5.53;;;1.80;;
14837;SDS011;7510;59.296;18.106;2022-11-20T11:28:58;4.43;;;1.73;;
14837;SDS011;7510;59.296;18.106;2022-11-20T11:31:28;3.50;;;2.00;;
14837;SDS011;7510;59.296;18.106;2022-11-20T11:34:08;1.73;;;1.63;;
14837;SDS011;7510;59.296;18.106;2022-11-20T11:36:37;2.57;;;1.63;;
14837;SDS011;7510;59.296;18.106;2022-11-20T11:39:03;2.40;;;2.20;;
14837;SDS011;7510;59.296;18.106;2022-11-20T11:41:32;2.50;;;1.00;;
14837;SDS011;7510;59.296;18.106;2022-11-20T11:44:21;2.50;;;2.03;;
14837;SDS011;7510;59.296;18.106;2022-11-20T11:47:33;3.67;;;1.60;;
14837;SDS011;7510;59.296;18.106;2022-11-20T12:06:38;4.53;;;1.43;;
14837;SDS011;7510;59.296;18.106;2022-11-20T12:09:09;4.90;;;1.60;;
14837;SDS011;7510;59.296;18.106;2022-11-20T12:11:43;4.73;;;1.50;;
14837;SDS011;7510;59.296;18.106;2022-11-20T12:17:01;1.63;;;1.50;;
14837;SDS011;7510;59.296;18.106;2022-11-20T12:19:29;3.47;;;1.40;;
14837;SDS011;7510;59.296;18.106;2022-11-20T12:24:55;5.67;;;1.33;;
14837;SDS011;7510;59.296;18.106;2022-11-20T12:30:21;2.87;;;1.77;;
14837;SDS011;7510;59.296;18.106;2022-11-20T12:38:38;3.80;;;2.30;;
14837;SDS011;7510;59.296;18.106;2022-11-20T12:50:28;5.50;;;3.10;;
14837;SDS011;7510;59.296;18.106;2022-11-20T12:59:00;5.73;;;3.40;;
14837;SDS011;7510;59.296;18.106;2022-11-20T13:06:44;9.53;;;4.20;;
14837;SDS011;7510;59.296;18.106;2022-11-20T13:09:10;7.60;;;3.87;;
14837;SDS011;7510;59.296;18.106;2022-11-20T13:17:17;6.00;;;3.47;;
14837;SDS011;7510;59.296;18.106;2022-11-20T13:19:50;7.03;;;3.57;;
14837;SDS011;7510;59.296;18.106;2022-11-20T13:22:29;45.83;;;6.20;;
14837;SDS011;7510;59.296;18.106;2022-11-20T13:28:25;5.13;;;2.70;;
14837;SDS011;7510;59.296;18.106;2022-11-20T13:30:55;7.33;;;3.77;;
14837;SDS011;7510;59.296;18.106;2022-11-20T13:35:58;6.60;;;3.40;;
14837;SDS011;7510;59.296;18.106;2022-11-20T13:38:23;5.03;;;3.20;;
14837;SDS011;7510;59.296;18.106;2022-11-20T13:40:59;4.43;;;3.00;;
14837;SDS011;7510;59.296;18.106;2022-11-20T13:43:49;6.93;;;2.80;;
14837;SDS011;7510;59.296;18.106;2022-11-20T13:46:15;6.43;;;3.07;;
14837;SDS011;7510;59.296;18.106;2022-11-20T13:51:12;3.73;;;2.63;;
14837;SDS011;7510;59.296;18.106;2022-11-20T13:59:15;2.27;;;1.50;;
14837;SDS011;7510;59.296;18.106;2022-11-20T14:01:45;3.50;;;1.77;;
14837;SDS011;7510;59.296;18.106;2022-11-20T14:04:15;2.20;;;1.83;;
14837;SDS011;7510;59.296;18.106;2022-11-20T14:06:45;2.40;;;1.90;;
14837;SDS011;7510;59.296;18.106;2022-11-20T14:09:27;1.97;;;1.57;;
14837;SDS011;7510;59.296;18.106;2022-11-20T14:11:54;2.03;;;1.80;;
14837;SDS011;7510;59.296;18.106;2022-11-20T14:14:24;2.53;;;1.90;;
14837;SDS011;7510;59.296;18.106;2022-11-20T14:16:52;44.17;;;2.77;;
14837;SDS011;7510;59.296;18.106;2022-11-20T14:19:29;21.17;;;2.33;;
14837;SDS011;7510;59.296;18.106;2022-11-20T14:22:09;3.93;;;1.80;;
14837;SDS011;7510;59.296;18.106;2022-11-20T14:24:42;2.23;;;1.80;;
14837;SDS011;7510;59.296;18.106;2022-11-20T14:27:25;3.33;;;2.20;;
14837;SDS011;7510;59.296;18.106;2022-11-20T14:29:51;9.70;;;2.43;;
14837;SDS011;7510;59.296;18.106;2022-11-20T14:32:17;2.43;;;1.57;;
14837;SDS011;7510;59.296;18.106;2022-11-20T14:34:45;2.10;;;1.90;;
14837;SDS011;7510;59.296;18.106;2022-11-20T14:37:17;2.00;;;1.53;;
14837;SDS011;7510;59.296;18.106;2022-11-20T14:39:52;1.67;;;1.47;;
14837;SDS011;7510;59.296;18.106;2022-11-20T14:42:20;2.83;;;1.50;;
14837;SDS011;7510;59.296;18.106;2022-11-20T14:44:51;2.50;;;2.00;;
14837;SDS011;7510;59.296;18.106;2022-11-20T14:47:21;2.53;;;1.30;;
14837;SDS011;7510;59.296;18.106;2022-11-20T14:49:50;1.77;;;1.60;;
14837;SDS011;7510;59.296;18.106;2022-11-20T14:52:18;2.83;;;1.70;;
14837;SDS011;7510;59.296;18.106;2022-11-20T14:54:46;2.53;;;1.40;;
14837;SDS011;7510;59.296;18.106;2022-11-20T14:57:23;3.43;;;1.93;;
14837;SDS011;7510;59.296;18.106;2022-11-20T15:02:49;1.53;;;1.10;;
14837;SDS011;7510;59.296;18.106;2022-11-20T15:05:16;3.10;;;1.90;;
14837;SDS011;7510;59.296;18.106;2022-11-20T15:07:44;3.03;;;1.63;;
14837;SDS011;7510;59.296;18.106;2022-11-20T15:10:33;1.90;;;1.47;;
14837;SDS011;7510;59.296;18.106;2022-11-20T15:13:02;2.63;;;1.93;;
14837;SDS011;7510;59.296;18.106;2022-11-20T15:18:24;1.93;;;1.50;;
14837;SDS011;7510;59.296;18.106;2022-11-20T15:20:54;3.63;;;1.93;;
14837;SDS011;7510;59.296;18.106;2022-11-20T15:23:26;2.73;;;1.53;;
14837;SDS011;7510;59.296;18.106;2022-11-20T15:25:52;4.33;;;2.10;;
14837;SDS011;7510;59.296;18.106;2022-11-20T15:28:22;3.87;;;1.50;;
14837;SDS011;7510;59.296;18.106;2022-11-20T15:30:50;4.37;;;2.37;;
14837;SDS011;7510;59.296;18.106;2022-11-20T15:33:16;2.83;;;1.83;;
14837;SDS011;7510;59.296;18.106;2022-11-20T15:35:42;2.73;;;2.03;;
14837;SDS011;7510;59.296;18.106;2022-11-20T15:38:08;1.43;;;1.23;;
14837;SDS011;7510;59.296;18.106;2022-11-20T15:40:33;2.87;;;1.77;;
14837;SDS011;7510;59.296;18.106;2022-11-20T15:42:59;5.30;;;2.17;;
14837;SDS011;7510;59.296;18.106;2022-11-20T15:45:28;4.60;;;2.30;;
14837;SDS011;7510;59.296;18.106;2022-11-20T15:47:59;7.47;;;1.87;;
14837;SDS011;7510;59.296;18.106;2022-11-20T15:50:27;3.83;;;2.67;;
14837;SDS011;7510;59.296;18.106;2022-11-20T15:52:59;3.57;;;2.20;;
14837;SDS011;7510;59.296;18.106;2022-11-20T15:55:25;3.20;;;2.20;;
14837;SDS011;7510;59.296;18.106;2022-11-20T15:57:51;4.17;;;2.77;;
14837;SDS011;7510;59.296;18.106;2022-11-20T16:00:16;4.67;;;2.77;;
14837;SDS011;7510;59.296;18.106;2022-11-20T16:02:42;3.03;;;1.77;;
14837;SDS011;7510;59.296;18.106;2022-11-20T16:05:11;3.23;;;2.23;;
14837;SDS011;7510;59.296;18.106;2022-11-20T16:07:37;3.37;;;2.07;;
14837;SDS011;7510;59.296;18.106;2022-11-20T16:10:03;3.50;;;2.43;;
14837;SDS011;7510;59.296;18.106;2022-11-20T16:12:29;1.83;;;1.73;;
14837;SDS011;7510;59.296;18.106;2022-11-20T16:15:13;3.17;;;1.60;;
14837;SDS011;7510;59.296;18.106;2022-11-20T16:17:57;2.90;;;2.00;;
14837;SDS011;7510;59.296;18.106;2022-11-20T16:20:23;4.20;;;1.67;;
14837;SDS011;7510;59.296;18.106;2022-11-20T16:22:48;3.40;;;2.43;;
14837;SDS011;7510;59.296;18.106;2022-11-20T16:25:14;4.83;;;2.60;;
14837;SDS011;7510;59.296;18.106;2022-11-20T16:27:39;6.83;;;2.80;;
14837;SDS011;7510;59.296;18.106;2022-11-20T16:30:05;3.03;;;1.20;;
14837;SDS011;7510;59.296;18.106;2022-11-20T16:32:30;3.90;;;1.80;;
14837;SDS011;7510;59.296;18.106;2022-11-20T16:34:56;4.87;;;2.77;;
14837;SDS011;7510;59.296;18.106;2022-11-20T16:37:21;3.47;;;2.30;;
14837;SDS011;7510;59.296;18.106;2022-11-20T16:39:47;4.33;;;2.20;;
14837;SDS011;7510;59.296;18.106;2022-11-20T16:42:12;2.87;;;2.20;;
14837;SDS011;7510;59.296;18.106;2022-11-20T16:44:37;3.60;;;1.83;;
14837;SDS011;7510;59.296;18.106;2022-11-20T16:47:03;3.00;;;2.30;;
14837;SDS011;7510;59.296;18.106;2022-11-20T16:49:28;2.17;;;0.90;;
14837;SDS011;7510;59.296;18.106;2022-11-20T16:51:54;4.43;;;2.20;;
14837;SDS011;7510;59.296;18.106;2022-11-20T16:54:19;3.37;;;2.50;;
14837;SDS011;7510;59.296;18.106;2022-11-20T16:56:45;2.83;;;2.10;;
14837;SDS011;7510;59.296;18.106;2022-11-20T16:59:12;2.93;;;1.70;;